sensor_id;sensor_type;location;lat;lon;timestamp;pressure;altitude;pressure_sealevel;temperature;humidity
40596;BME280;26304;48.794;9.820;2023-03-04T00:01:40;96735.53;;;14.89;42.09
40596;BME280;26304;48.794;9.820;2023-03-04T00:07:23;96734.50;;;14.78;42.38
40596;BME280;26304;48.794;9.820;2023-03-04T00:13:06;96737.47;;;14.76;42.42
40596;BME280;26304;48.794;9.820;2023-03-04T00:18:48;96729.22;;;14.33;42.80
40596;BME280;26304;48.794;9.820;2023-03-04T00:24:32;96729.97;;;14.34;42.93
40596;BME280;26304;48.794;9.820;2023-03-04T00:30:15;96726.66;;;14.49;42.45
40596;BME280;26304;48.794;9.820;2023-03-04T00:35:58;96724.94;;;14.41;42.94
40596;BME280;26304;48.794;9.820;2023-03-04T00:41:42;96720.84;;;14.56;42.63
40596;BME280;26304;48.794;9.820;2023-03-04T00:47:24;96721.03;;;14.35;43.04
40596;BME280;26304;48.794;9.820;2023-03-04T00:53:07;96725.75;;;14.29;42.47
40596;BME280;26304;48.794;9.820;2023-03-04T00:58:50;96725.63;;;14.38;41.95
40596;BME280;26304;48.794;9.820;2023-03-04T01:04:33;96709.75;;;14.47;42.57
40596;BME280;26304;48.794;9.820;2023-03-04T01:10:16;96710.09;;;14.45;42.47
40596;BME280;26304;48.794;9.820;2023-03-04T01:16:01;96701.53;;;14.32;43.11
40596;BME280;26304;48.794;9.820;2023-03-04T01:21:45;96699.75;;;14.49;41.36
40596;BME280;26304;48.794;9.820;2023-03-04T01:27:27;96698.38;;;14.39;41.94
40596;BME280;26304;48.794;9.820;2023-03-04T01:33:11;96689.66;;;14.07;42.67
40596;BME280;26304;48.794;9.820;2023-03-04T01:38:53;96693.03;;;14.07;43.15
40596;BME280;26304;48.794;9.820;2023-03-04T01:44:36;96686.09;;;14.27;42.55
40596;BME280;26304;48.794;9.820;2023-03-04T01:50:24;96689.84;;;14.14;43.24
40596;BME280;26304;48.794;9.820;2023-03-04T01:56:12;96685.88;;;14.04;42.87
40596;BME280;26304;48.794;9.820;2023-03-04T02:01:58;96686.38;;;14.10;42.79
40596;BME280;26304;48.794;9.820;2023-03-04T02:07:42;96683.91;;;14.01;42.79
40596;BME280;26304;48.794;9.820;2023-03-04T02:13:25;96675.41;;;14.04;43.06
40596;BME280;26304;48.794;9.820;2023-03-04T02:19:14;96681.69;;;14.15;42.08
40596;BME280;26304;48.794;9.820;2023-03-04T02:25:02;96688.09;;;14.91;40.73
40596;BME280;26304;48.794;9.820;2023-03-04T02:30:50;96686.88;;;15.71;39.42
40596;BME280;26304;48.794;9.820;2023-03-04T02:36:33;96687.50;;;16.20;39.12
40596;BME280;26304;48.794;9.820;2023-03-04T02:42:16;96683.28;;;16.58;38.32
40596;BME280;26304;48.794;9.820;2023-03-04T02:48:01;96691.84;;;16.97;38.24
40596;BME280;26304;48.794;9.820;2023-03-04T02:53:43;96676.88;;;17.24;37.66
40596;BME280;26304;48.794;9.820;2023-03-04T02:59:26;96683.72;;;17.29;37.59
40596;BME280;26304;48.794;9.820;2023-03-04T03:05:11;96683.81;;;17.36;37.47
40596;BME280;26304;48.794;9.820;2023-03-04T03:10:53;96681.53;;;17.61;36.85
40596;BME280;26304;48.794;9.820;2023-03-04T03:16:36;96681.28;;;17.70;37.09
40596;BME280;26304;48.794;9.820;2023-03-04T03:22:21;96682.28;;;17.62;37.38
40596;BME280;26304;48.794;9.820;2023-03-04T03:28:04;96682.16;;;17.82;36.95
40596;BME280;26304;48.794;9.820;2023-03-04T03:33:46;96687.06;;;18.13;36.26
40596;BME280;26304;48.794;9.820;2023-03-04T03:39:30;96683.81;;;18.24;36.08
40596;BME280;26304;48.794;9.820;2023-03-04T03:45:12;96674.94;;;18.02;36.58
40596;BME280;26304;48.794;9.820;2023-03-04T03:50:55;96670.53;;;18.50;35.83
40596;BME280;26304;48.794;9.820;2023-03-04T03:56:38;96671.13;;;18.74;34.91
40596;BME280;26304;48.794;9.820;2023-03-04T04:02:21;96673.63;;;18.60;35.25
40596;BME280;26304;48.794;9.820;2023-03-04T04:08:04;96670.88;;;18.45;35.58
40596;BME280;26304;48.794;9.820;2023-03-04T04:13:47;96678.44;;;17.83;36.90
40596;BME280;26304;48.794;9.820;2023-03-04T04:19:30;96673.91;;;17.26;37.52
40596;BME280;26304;48.794;9.820;2023-03-04T04:25:12;96683.97;;;16.97;37.56
40596;BME280;26304;48.794;9.820;2023-03-04T04:30:56;96673.50;;;17.51;37.06
40596;BME280;26304;48.794;9.820;2023-03-04T04:36:39;96677.91;;;18.34;35.85
40596;BME280;26304;48.794;9.820;2023-03-04T04:42:21;96684.91;;;19.01;35.18
40596;BME280;26304;48.794;9.820;2023-03-04T04:48:05;96682.66;;;19.55;34.71
40596;BME280;26304;48.794;9.820;2023-03-04T04:53:49;96678.75;;;20.08;34.52
40596;BME280;26304;48.794;9.820;2023-03-04T04:59:31;96678.75;;;20.05;34.71
40596;BME280;26304;48.794;9.820;2023-03-04T05:05:15;96683.75;;;20.31;34.84
40596;BME280;26304;48.794;9.820;2023-03-04T05:10:57;96683.97;;;19.94;35.82
40596;BME280;26304;48.794;9.820;2023-03-04T05:16:40;96690.56;;;19.59;36.62
40596;BME280;26304;48.794;9.820;2023-03-04T05:22:24;96694.47;;;19.20;38.19
40596;BME280;26304;48.794;9.820;2023-03-04T05:28:06;96687.75;;;18.82;38.75
40596;BME280;26304;48.794;9.820;2023-03-04T05:33:52;96691.63;;;18.92;38.43
40596;BME280;26304;48.794;9.820;2023-03-04T05:39:36;96685.22;;;18.51;39.20
40596;BME280;26304;48.794;9.820;2023-03-04T05:45:18;96709.59;;;18.45;39.31
40596;BME280;26304;48.794;9.820;2023-03-04T05:51:01;96696.03;;;18.09;39.86
40596;BME280;26304;48.794;9.820;2023-03-04T05:56:45;96698.41;;;18.55;39.58
40596;BME280;26304;48.794;9.820;2023-03-04T06:02:27;96709.16;;;18.39;40.08
40596;BME280;26304;48.794;9.820;2023-03-04T06:08:10;96707.56;;;18.31;39.89
40596;BME280;26304;48.794;9.820;2023-03-04T06:13:54;96705.94;;;18.19;40.08
40596;BME280;26304;48.794;9.820;2023-03-04T06:19:36;96725.06;;;18.50;39.78
40596;BME280;26304;48.794;9.820;2023-03-04T06:25:19;96721.81;;;18.64;39.45
40596;BME280;26304;48.794;9.820;2023-03-04T06:31:03;96731.31;;;18.72;40.05
40596;BME280;26304;48.794;9.820;2023-03-04T06:36:45;96742.69;;;18.83;39.59
40596;BME280;26304;48.794;9.820;2023-03-04T06:42:28;96750.97;;;18.82;40.04
40596;BME280;26304;48.794;9.820;2023-03-04T06:48:12;96756.94;;;18.75;40.29
40596;BME280;26304;48.794;9.820;2023-03-04T06:53:54;96760.63;;;18.70;40.65
40596;BME280;26304;48.794;9.820;2023-03-04T06:59:37;96769.16;;;18.60;40.90
40596;BME280;26304;48.794;9.820;2023-03-04T07:05:20;96774.72;;;18.51;40.89
40596;BME280;26304;48.794;9.820;2023-03-04T07:11:04;96773.91;;;18.47;40.95
40596;BME280;26304;48.794;9.820;2023-03-04T07:16:46;96776.13;;;18.42;41.20
40596;BME280;26304;48.794;9.820;2023-03-04T07:22:30;96788.13;;;18.39;40.94
40596;BME280;26304;48.794;9.820;2023-03-04T07:28:13;96785.00;;;18.30;40.96
40596;BME280;26304;48.794;9.820;2023-03-04T07:33:57;96791.72;;;18.24;41.54
40596;BME280;26304;48.794;9.820;2023-03-04T07:39:40;96797.63;;;18.17;41.40
40596;BME280;26304;48.794;9.820;2023-03-04T07:45:23;96802.75;;;18.06;41.48
40596;BME280;26304;48.794;9.820;2023-03-04T07:51:07;96810.09;;;17.93;41.85
40596;BME280;26304;48.794;9.820;2023-03-04T07:56:51;96816.63;;;17.80;42.03
40596;BME280;26304;48.794;9.820;2023-03-04T08:02:34;96814.25;;;17.71;41.75
40596;BME280;26304;48.794;9.820;2023-03-04T08:08:16;96816.19;;;17.51;41.75
40596;BME280;26304;48.794;9.820;2023-03-04T08:14:00;96820.19;;;17.65;41.74
40596;BME280;26304;48.794;9.820;2023-03-04T08:19:43;96814.63;;;17.47;42.71
40596;BME280;26304;48.794;9.820;2023-03-04T08:25:25;96819.81;;;17.43;42.26
40596;BME280;26304;48.794;9.820;2023-03-04T08:31:09;96822.69;;;17.34;42.75
40596;BME280;26304;48.794;9.820;2023-03-04T08:36:52;96836.09;;;17.29;42.81
40596;BME280;26304;48.794;9.820;2023-03-04T08:42:35;96833.06;;;17.27;42.71
40596;BME280;26304;48.794;9.820;2023-03-04T08:48:19;96830.31;;;17.20;42.89
40596;BME280;26304;48.794;9.820;2023-03-04T08:54:02;96832.88;;;17.16;42.74
40596;BME280;26304;48.794;9.820;2023-03-04T08:59:45;96833.53;;;17.10;42.59
40596;BME280;26304;48.794;9.820;2023-03-04T09:05:29;96841.44;;;16.90;42.52
40596;BME280;26304;48.794;9.820;2023-03-04T09:11:12;96839.75;;;17.01;42.56
40596;BME280;26304;48.794;9.820;2023-03-04T09:16:54;96839.34;;;16.99;42.11
40596;BME280;26304;48.794;9.820;2023-03-04T09:22:39;96836.28;;;16.97;42.23
40596;BME280;26304;48.794;9.820;2023-03-04T09:28:22;96834.66;;;16.89;42.45
40596;BME280;26304;48.794;9.820;2023-03-04T09:34:04;96839.84;;;16.85;42.22
40596;BME280;26304;48.794;9.820;2023-03-04T09:39:48;96845.41;;;16.84;42.08
40596;BME280;26304;48.794;9.820;2023-03-04T09:45:35;96835.53;;;16.77;42.55
40596;BME280;26304;48.794;9.820;2023-03-04T09:51:21;96833.53;;;16.70;43.11
40596;BME280;26304;48.794;9.820;2023-03-04T09:57:20;96840.97;;;16.68;42.84
40596;BME280;26304;48.794;9.820;2023-03-04T10:03:11;96837.19;;;16.66;43.05
40596;BME280;26304;48.794;9.820;2023-03-04T10:08:57;96837.94;;;16.66;42.48
40596;BME280;26304;48.794;9.820;2023-03-04T10:14:46;96834.06;;;16.60;42.99
40596;BME280;26304;48.794;9.820;2023-03-04T10:20:42;96833.31;;;16.60;42.72
40596;BME280;26304;48.794;9.820;2023-03-04T10:26:29;96834.34;;;16.55;42.33
40596;BME280;26304;48.794;9.820;2023-03-04T10:32:15;96827.22;;;16.56;42.67
40596;BME280;26304;48.794;9.820;2023-03-04T10:38:01;96829.03;;;16.51;42.62
40596;BME280;26304;48.794;9.820;2023-03-04T10:43:49;96830.88;;;16.51;42.39
40596;BME280;26304;48.794;9.820;2023-03-04T10:49:33;96832.34;;;16.48;42.07
40596;BME280;26304;48.794;9.820;2023-03-04T10:55:42;96823.28;;;16.46;42.65
40596;BME280;26304;48.794;9.820;2023-03-04T11:01:25;96817.97;;;16.62;42.10
40596;BME280;26304;48.794;9.820;2023-03-04T11:07:10;96811.69;;;16.66;41.55
40596;BME280;26304;48.794;9.820;2023-03-04T11:12:59;96805.06;;;16.73;41.73
40596;BME280;26304;48.794;9.820;2023-03-04T11:18:45;96799.66;;;16.65;42.29
40596;BME280;26304;48.794;9.820;2023-03-04T11:24:32;96805.91;;;16.38;42.54
40596;BME280;26304;48.794;9.820;2023-03-04T11:30:25;96798.31;;;16.32;42.49
40596;BME280;26304;48.794;9.820;2023-03-04T11:36:21;96803.38;;;16.25;43.74
40596;BME280;26304;48.794;9.820;2023-03-04T11:42:12;96799.41;;;16.31;43.27
40596;BME280;26304;48.794;9.820;2023-03-04T11:48:03;96785.44;;;16.27;43.58
40596;BME280;26304;48.794;9.820;2023-03-04T11:54:00;96792.22;;;16.28;43.18
40596;BME280;26304;48.794;9.820;2023-03-04T11:59:58;96780.97;;;16.28;43.09
40596;BME280;26304;48.794;9.820;2023-03-04T12:05:50;96776.47;;;16.28;43.02
40596;BME280;26304;48.794;9.820;2023-03-04T12:11:44;96766.66;;;16.25;42.88
40596;BME280;26304;48.794;9.820;2023-03-04T12:17:42;96755.34;;;16.21;43.66
40596;BME280;26304;48.794;9.820;2023-03-04T12:23:42;96749.16;;;16.29;44.02
40596;BME280;26304;48.794;9.820;2023-03-04T12:29:35;96744.56;;;16.46;44.20
40596;BME280;26304;48.794;9.820;2023-03-04T12:35:30;96736.38;;;16.28;44.06
40596;BME280;26304;48.794;9.820;2023-03-04T12:41:24;96723.59;;;16.26;44.22
40596;BME280;26304;48.794;9.820;2023-03-04T12:47:19;96722.00;;;16.22;44.06
40596;BME280;26304;48.794;9.820;2023-03-04T12:53:13;96716.69;;;16.18;44.16
40596;BME280;26304;48.794;9.820;2023-03-04T12:58:59;96711.78;;;16.16;43.46
40596;BME280;26304;48.794;9.820;2023-03-04T13:04:50;96710.19;;;16.31;43.49
40596;BME280;26304;48.794;9.820;2023-03-04T13:10:35;96712.88;;;16.35;44.37
40596;BME280;26304;48.794;9.820;2023-03-04T13:16:29;96704.66;;;16.37;44.35
40596;BME280;26304;48.794;9.820;2023-03-04T13:22:27;96702.13;;;16.40;44.70
40596;BME280;26304;48.794;9.820;2023-03-04T13:40:35;96700.91;;;16.57;43.77
40596;BME280;26304;48.794;9.820;2023-03-04T13:46:41;96699.81;;;16.58;43.52
40596;BME280;26304;48.794;9.820;2023-03-04T13:52:38;96702.16;;;16.63;43.75
40596;BME280;26304;48.794;9.820;2023-03-04T13:58:25;96704.56;;;16.72;43.11
40596;BME280;26304;48.794;9.820;2023-03-04T14:04:16;96704.81;;;16.67;43.77
40596;BME280;26304;48.794;9.820;2023-03-04T14:10:00;96712.84;;;16.74;43.06
40596;BME280;26304;48.794;9.820;2023-03-04T14:15:53;96698.44;;;16.64;43.97
40596;BME280;26304;48.794;9.820;2023-03-04T14:21:37;96694.06;;;16.72;43.41
40596;BME280;26304;48.794;9.820;2023-03-04T14:27:25;96693.22;;;16.68;43.25
40596;BME280;26304;48.794;9.820;2023-03-04T14:33:13;96691.69;;;16.67;43.23
40596;BME280;26304;48.794;9.820;2023-03-04T14:38:58;96686.88;;;16.69;43.94
40596;BME280;26304;48.794;9.820;2023-03-04T14:44:44;96678.94;;;16.65;43.92
40596;BME280;26304;48.794;9.820;2023-03-04T14:50:28;96676.94;;;16.59;43.86
40596;BME280;26304;48.794;9.820;2023-03-04T14:56:12;96671.75;;;16.62;43.91
40596;BME280;26304;48.794;9.820;2023-03-04T15:02:12;96668.03;;;16.40;44.38
40596;BME280;26304;48.794;9.820;2023-03-04T15:08:00;96666.69;;;16.50;44.46
40596;BME280;26304;48.794;9.820;2023-03-04T15:13:46;96659.06;;;16.45;44.37
40596;BME280;26304;48.794;9.820;2023-03-04T15:19:29;96658.97;;;16.38;44.65
40596;BME280;26304;48.794;9.820;2023-03-04T15:25:12;96655.59;;;16.17;44.95
40596;BME280;26304;48.794;9.820;2023-03-04T15:30:56;96651.38;;;16.13;45.17
40596;BME280;26304;48.794;9.820;2023-03-04T15:36:39;96657.25;;;16.06;44.80
40596;BME280;26304;48.794;9.820;2023-03-04T15:42:21;96657.53;;;16.01;45.45
40596;BME280;26304;48.794;9.820;2023-03-04T15:48:08;96647.75;;;15.98;44.57
40596;BME280;26304;48.794;9.820;2023-03-04T15:53:53;96650.03;;;16.00;44.75
40596;BME280;26304;48.794;9.820;2023-03-04T15:59:36;96647.69;;;15.94;44.57
40596;BME280;26304;48.794;9.820;2023-03-04T16:05:20;96657.47;;;15.97;44.18
40596;BME280;26304;48.794;9.820;2023-03-04T16:11:03;96660.78;;;16.14;44.14
40596;BME280;26304;48.794;9.820;2023-03-04T16:16:46;96661.75;;;16.25;43.87
40596;BME280;26304;48.794;9.820;2023-03-04T16:22:32;96651.78;;;16.34;44.02
40596;BME280;26304;48.794;9.820;2023-03-04T16:28:14;96651.50;;;16.40;44.48
40596;BME280;26304;48.794;9.820;2023-03-04T16:33:57;96655.16;;;16.35;45.28
40596;BME280;26304;48.794;9.820;2023-03-04T16:39:41;96664.47;;;16.52;44.75
40596;BME280;26304;48.794;9.820;2023-03-04T16:45:27;96665.91;;;16.49;45.60
40596;BME280;26304;48.794;9.820;2023-03-04T16:51:12;96663.38;;;16.53;46.09
40596;BME280;26304;48.794;9.820;2023-03-04T16:56:57;96669.81;;;16.59;48.87
40596;BME280;26304;48.794;9.820;2023-03-04T17:02:39;96672.94;;;16.65;49.56
40596;BME280;26304;48.794;9.820;2023-03-04T17:08:22;96677.66;;;16.79;50.41
40596;BME280;26304;48.794;9.820;2023-03-04T17:14:06;96680.41;;;16.86;53.38
40596;BME280;26304;48.794;9.820;2023-03-04T17:19:48;96680.19;;;16.95;55.67
40596;BME280;26304;48.794;9.820;2023-03-04T17:25:31;96681.06;;;17.02;55.13
40596;BME280;26304;48.794;9.820;2023-03-04T17:31:16;96672.41;;;17.25;56.88
40596;BME280;26304;48.794;9.820;2023-03-04T17:36:59;96674.75;;;17.34;54.35
40596;BME280;26304;48.794;9.820;2023-03-04T17:42:42;96681.53;;;17.35;52.67
40596;BME280;26304;48.794;9.820;2023-03-04T17:48:26;96681.78;;;17.26;52.04
40596;BME280;26304;48.794;9.820;2023-03-04T17:54:09;96687.81;;;17.03;51.51
40596;BME280;26304;48.794;9.820;2023-03-04T17:59:52;96678.03;;;17.00;50.55
40596;BME280;26304;48.794;9.820;2023-03-04T18:05:35;96680.13;;;16.91;49.71
40596;BME280;26304;48.794;9.820;2023-03-04T18:11:18;96668.66;;;16.80;49.30
40596;BME280;26304;48.794;9.820;2023-03-04T18:17:01;96659.31;;;16.59;48.61
40596;BME280;26304;48.794;9.820;2023-03-04T18:22:45;96651.50;;;16.40;47.65
40596;BME280;26304;48.794;9.820;2023-03-04T18:28:27;96647.13;;;16.47;47.67
40596;BME280;26304;48.794;9.820;2023-03-04T18:34:10;96642.72;;;16.51;46.36
40596;BME280;26304;48.794;9.820;2023-03-04T18:39:53;96647.47;;;16.46;46.38
40596;BME280;26304;48.794;9.820;2023-03-04T18:45:36;96661.38;;;16.69;46.09
40596;BME280;26304;48.794;9.820;2023-03-04T18:51:19;96656.28;;;16.57;46.29
40596;BME280;26304;48.794;9.820;2023-03-04T18:57:07;96641.38;;;16.61;46.22
40596;BME280;26304;48.794;9.820;2023-03-04T19:02:52;96642.03;;;16.55;46.21
40596;BME280;26304;48.794;9.820;2023-03-04T19:08:35;96639.56;;;16.42;46.76
40596;BME280;26304;48.794;9.820;2023-03-04T19:14:19;96640.19;;;16.36;46.42
40596;BME280;26304;48.794;9.820;2023-03-04T19:20:01;96641.69;;;16.37;46.14
40596;BME280;26304;48.794;9.820;2023-03-04T19:25:44;96642.81;;;16.59;46.86
40596;BME280;26304;48.794;9.820;2023-03-04T19:31:28;96642.03;;;16.55;47.64
40596;BME280;26304;48.794;9.820;2023-03-04T19:37:11;96648.31;;;16.73;47.43
40596;BME280;26304;48.794;9.820;2023-03-04T19:42:54;96646.56;;;16.58;47.61
40596;BME280;26304;48.794;9.820;2023-03-04T19:48:39;96639.16;;;16.63;47.97
40596;BME280;26304;48.794;9.820;2023-03-04T19:54:21;96640.69;;;16.64;47.81
40596;BME280;26304;48.794;9.820;2023-03-04T20:00:05;96638.06;;;16.64;47.93
40596;BME280;26304;48.794;9.820;2023-03-04T20:05:49;96626.72;;;16.60;48.67
40596;BME280;26304;48.794;9.820;2023-03-04T20:11:31;96627.13;;;16.62;47.94
40596;BME280;26304;48.794;9.820;2023-03-04T20:17:14;96637.06;;;16.73;48.89
40596;BME280;26304;48.794;9.820;2023-03-04T20:22:58;96627.00;;;16.78;48.01
40596;BME280;26304;48.794;9.820;2023-03-04T20:28:40;96646.50;;;16.54;45.28
40596;BME280;26304;48.794;9.820;2023-03-04T20:34:23;96638.41;;;16.63;43.81
40596;BME280;26304;48.794;9.820;2023-03-04T20:40:10;96628.41;;;16.49;43.12
40596;BME280;26304;48.794;9.820;2023-03-04T20:45:53;96637.34;;;16.44;42.28
40596;BME280;26304;48.794;9.820;2023-03-04T20:51:36;96635.91;;;16.47;42.42
40596;BME280;26304;48.794;9.820;2023-03-04T20:57:20;96631.44;;;16.51;40.91
40596;BME280;26304;48.794;9.820;2023-03-04T21:03:03;96616.69;;;16.43;40.79
40596;BME280;26304;48.794;9.820;2023-03-04T21:08:45;96608.03;;;16.39;42.00
40596;BME280;26304;48.794;9.820;2023-03-04T21:14:30;96603.34;;;16.28;40.59
40596;BME280;26304;48.794;9.820;2023-03-04T21:20:13;96597.16;;;16.17;40.20
40596;BME280;26304;48.794;9.820;2023-03-04T21:25:56;96597.06;;;15.74;40.59
40596;BME280;26304;48.794;9.820;2023-03-04T21:31:42;96597.69;;;15.48;39.94
40596;BME280;26304;48.794;9.820;2023-03-04T21:37:26;96592.31;;;15.41;39.09
40596;BME280;26304;48.794;9.820;2023-03-04T21:43:08;96594.69;;;15.66;39.58
40596;BME280;26304;48.794;9.820;2023-03-04T21:48:52;96590.25;;;15.70;40.01
40596;BME280;26304;48.794;9.820;2023-03-04T21:54:34;96591.38;;;15.69;40.83
40596;BME280;26304;48.794;9.820;2023-03-04T22:00:18;96586.03;;;15.65;40.97
40596;BME280;26304;48.794;9.820;2023-03-04T22:06:04;96582.66;;;15.65;41.86
40596;BME280;26304;48.794;9.820;2023-03-04T22:11:46;96575.50;;;15.61;41.88
40596;BME280;26304;48.794;9.820;2023-03-04T22:17:29;96577.72;;;15.59;42.08
40596;BME280;26304;48.794;9.820;2023-03-04T22:23:15;96573.91;;;15.57;42.78
40596;BME280;26304;48.794;9.820;2023-03-04T22:28:58;96560.81;;;15.57;42.96
40596;BME280;26304;48.794;9.820;2023-03-04T22:34:40;96566.72;;;15.54;42.76
40596;BME280;26304;48.794;9.820;2023-03-04T22:40:24;96563.72;;;15.52;42.85
40596;BME280;26304;48.794;9.820;2023-03-04T22:46:11;96547.91;;;15.48;43.12
40596;BME280;26304;48.794;9.820;2023-03-04T22:51:53;96546.75;;;15.46;43.09
40596;BME280;26304;48.794;9.820;2023-03-04T22:57:37;96548.53;;;15.41;43.40
40596;BME280;26304;48.794;9.820;2023-03-04T23:03:20;96551.91;;;15.42;43.93
40596;BME280;26304;48.794;9.820;2023-03-04T23:09:02;96553.28;;;15.36;44.07
40596;BME280;26304;48.794;9.820;2023-03-04T23:14:46;96550.66;;;15.36;43.92
40596;BME280;26304;48.794;9.820;2023-03-04T23:20:29;96542.06;;;15.35;43.75
40596;BME280;26304;48.794;9.820;2023-03-04T23:26:15;96539.78;;;15.34;43.92
40596;BME280;26304;48.794;9.820;2023-03-04T23:31:59;96533.34;;;15.31;44.13
40596;BME280;26304;48.794;9.820;2023-03-04T23:37:42;96539.28;;;15.28;44.24
40596;BME280;26304;48.794;9.820;2023-03-04T23:43:24;96526.53;;;15.26;43.90
40596;BME280;26304;48.794;9.820;2023-03-04T23:49:12;96523.50;;;15.24;44.43
40596;BME280;26304;48.794;9.820;2023-03-04T23:54:57;96524.94;;;15.22;44.09
